createdAt,value
2018-09-19T00:00:19.588Z,98395.33
2018-09-19T00:02:48.146Z,98400.73
2018-09-19T00:05:16.745Z,98399.11
2018-09-19T00:07:45.315Z,98396.41
2018-09-19T00:10:13.887Z,98413.67
2018-09-19T00:12:42.424Z,98410.45
2018-09-19T00:15:10.986Z,98414.47
2018-09-19T00:17:39.561Z,98410.72
2018-09-19T00:20:08.200Z,98414.45
2018-09-19T00:22:36.772Z,98416.61
2018-09-19T00:25:05.385Z,98416.06
2018-09-19T00:27:33.970Z,98417.16
2018-09-19T00:30:02.497Z,98430.94
2018-09-19T00:32:31.087Z,98425.53
2018-09-19T00:34:59.660Z,98433.60
2018-09-19T00:37:28.272Z,98439.00
2018-09-19T00:39:56.850Z,98449.80
2018-09-19T00:42:25.445Z,98457.92
2018-09-19T00:44:54.001Z,98468.98
2018-09-19T00:47:22.598Z,98462.52
2018-09-19T00:49:51.153Z,98466.36
2018-09-19T00:52:19.737Z,98466.92
2018-09-19T00:54:48.306Z,98460.41
2018-09-19T00:57:16.956Z,98450.36
2018-09-19T00:59:45.530Z,98448.93
2018-09-19T01:02:14.133Z,98441.34
2018-09-19T01:04:42.721Z,98436.19
2018-09-19T01:07:11.343Z,98447.28
2018-09-19T01:09:39.923Z,98442.41
2018-09-19T01:12:08.515Z,98435.89
2018-09-19T01:14:37.053Z,98439.09
2018-09-19T01:17:05.688Z,98425.58
2018-09-19T01:19:34.240Z,98423.16
2018-09-19T01:22:02.861Z,98418.28
2018-09-19T01:24:31.439Z,98411.20
2018-09-19T01:27:00.065Z,98396.15
2018-09-19T01:29:28.604Z,98405.54
2018-09-19T01:31:57.222Z,98408.81
2018-09-19T01:34:25.796Z,98411.03
2018-09-19T01:36:54.404Z,98406.77
2018-09-19T01:39:22.957Z,98412.23
2018-09-19T01:41:51.549Z,98420.33
2018-09-19T01:44:20.125Z,98416.66
2018-09-19T01:46:48.681Z,98412.86
2018-09-19T01:49:17.252Z,98416.78
2018-09-19T01:51:45.894Z,98412.97
2018-09-19T01:54:14.463Z,98412.39
2018-09-19T01:56:43.062Z,98408.63
2018-09-19T01:59:11.634Z,98407.07
2018-09-19T02:01:40.289Z,98404.91
2018-09-19T02:04:08.801Z,98409.23
2018-09-19T02:06:37.387Z,98419.78
2018-09-19T02:09:09.123Z,98421.73
2018-09-19T02:11:37.826Z,98421.73
2018-09-19T02:14:06.671Z,98423.13
2018-09-19T02:16:35.272Z,98427.45
2018-09-19T02:19:03.866Z,98425.84
2018-09-19T02:21:32.458Z,98429.62
2018-09-19T02:24:01.076Z,98430.16
2018-09-19T02:26:29.604Z,98434.18
2018-09-19T02:28:58.224Z,98434.70
2018-09-19T02:31:27.119Z,98424.58
2018-09-19T02:33:56.144Z,98414.25
2018-09-19T02:36:26.041Z,98430.51
2018-09-19T02:38:56.702Z,98445.31
2018-09-19T02:41:25.300Z,98434.84
2018-09-19T02:43:53.931Z,98440.00
2018-09-19T02:46:22.514Z,98430.84
2018-09-19T02:48:51.117Z,98424.69
2018-09-19T02:51:19.665Z,98418.98
2018-09-19T02:53:48.896Z,98428.47
2018-09-19T02:56:17.509Z,98432.00
2018-09-19T02:58:46.104Z,98442.55
2018-09-19T03:01:14.662Z,98447.94
2018-09-19T03:03:43.281Z,98448.44
2018-09-19T03:06:11.857Z,98445.04
2018-09-19T03:08:40.442Z,98445.09
2018-09-19T03:11:09.001Z,98453.89
2018-09-19T03:13:37.648Z,98461.09
2018-09-19T03:16:06.213Z,98457.50
2018-09-19T03:18:34.806Z,98452.41
2018-09-19T03:21:03.363Z,98452.14
2018-09-19T03:23:31.949Z,98445.79
2018-09-19T03:26:00.491Z,98439.91
2018-09-19T03:28:29.076Z,98437.78
2018-09-19T03:30:57.626Z,98433.87
2018-09-19T03:33:26.196Z,98432.84
2018-09-19T03:35:54.765Z,98433.20
2018-09-19T03:38:23.408Z,98429.48
2018-09-19T03:40:51.983Z,98439.77
2018-09-19T03:43:20.567Z,98432.25
2018-09-19T03:45:49.153Z,98434.38
2018-09-19T03:48:17.746Z,98439.20
2018-09-19T03:50:46.328Z,98443.25
2018-09-19T03:53:14.911Z,98444.55
2018-09-19T03:55:43.497Z,98447.51
2018-09-19T03:58:12.101Z,98449.41
2018-09-19T04:00:40.739Z,98454.57
2018-09-19T04:03:09.357Z,98449.12
2018-09-19T04:05:37.944Z,98453.52
2018-09-19T04:08:06.668Z,98453.78
2018-09-19T04:10:35.264Z,98448.17
2018-09-19T04:13:03.875Z,98452.72
2018-09-19T04:15:32.420Z,98463.83
2018-09-19T04:18:01.013Z,98464.70
2018-09-19T04:20:29.599Z,98464.36
2018-09-19T04:22:58.503Z,98456.73
2018-09-19T04:25:27.070Z,98467.20
2018-09-19T04:27:55.625Z,98467.30
2018-09-19T04:30:24.231Z,98467.03
2018-09-19T04:32:52.873Z,98464.06
2018-09-19T04:35:21.474Z,98464.89
2018-09-19T04:37:50.054Z,98468.22
2018-09-19T04:40:18.680Z,98469.02
2018-09-19T04:42:47.216Z,98462.05
2018-09-19T04:45:15.912Z,98464.46
2018-09-19T04:47:44.422Z,98463.12
2018-09-19T04:50:13.008Z,98462.56
2018-09-19T04:52:41.576Z,98460.68
2018-09-19T04:55:10.577Z,98456.88
2018-09-19T04:57:42.979Z,98457.95
2018-09-19T05:00:11.603Z,98456.41
2018-09-19T05:02:40.741Z,98458.89
2018-09-19T05:05:09.806Z,98461.34
2018-09-19T05:07:47.660Z,98471.85
2018-09-19T05:10:16.336Z,98475.88
2018-09-19T05:12:45.016Z,98485.47
2018-09-19T05:15:14.200Z,98482.34
2018-09-19T05:17:43.016Z,98480.48
2018-09-19T05:20:11.590Z,98481.83
2018-09-19T05:22:40.163Z,98482.43
2018-09-19T05:25:09.834Z,98486.45
2018-09-19T05:27:38.424Z,98483.98
2018-09-19T05:30:07.733Z,98483.49
2018-09-19T05:32:36.355Z,98478.16
2018-09-19T05:35:08.250Z,98481.94
2018-09-19T05:37:38.640Z,98480.33
2018-09-19T05:40:07.272Z,98483.31
2018-09-19T05:42:35.840Z,98486.59
2018-09-19T05:45:04.551Z,98483.06
2018-09-19T05:47:33.115Z,98497.61
2018-09-19T05:50:01.723Z,98484.95
2018-09-19T05:52:30.286Z,98491.92
2018-09-19T05:55:00.077Z,98487.89
2018-09-19T05:57:30.196Z,98492.22
2018-09-19T05:59:58.837Z,98492.25
2018-09-19T06:02:27.388Z,98501.13
2018-09-19T06:04:56.576Z,98493.63
2018-09-19T06:07:25.299Z,98494.68
2018-09-19T06:09:53.918Z,98502.83
2018-09-19T06:12:22.477Z,98509.06
2018-09-19T06:14:51.068Z,98515.23
2018-09-19T06:17:19.747Z,98512.58
2018-09-19T06:19:48.482Z,98522.52
2018-09-19T06:22:17.042Z,98518.45
2018-09-19T06:24:45.648Z,98528.69
2018-09-19T06:27:14.259Z,98523.55
2018-09-19T06:29:42.874Z,98520.88
2018-09-19T06:32:12.093Z,98517.84
2018-09-19T06:34:40.717Z,98515.42
2018-09-19T06:37:09.400Z,98518.05
2018-09-19T06:39:38.002Z,98524.20
2018-09-19T06:42:06.624Z,98536.00
2018-09-19T06:44:35.252Z,98535.56
2018-09-19T06:47:03.929Z,98543.45
2018-09-19T06:49:32.476Z,98544.05
2018-09-19T06:52:01.134Z,98541.27
2018-09-19T06:54:29.652Z,98543.20
2018-09-19T06:56:58.258Z,98551.05
2018-09-19T06:59:26.816Z,98553.02
2018-09-19T07:01:55.409Z,98563.07
2018-09-19T07:04:23.988Z,98574.19
2018-09-19T07:06:52.648Z,98585.80
2018-09-19T07:09:21.212Z,98581.47
2018-09-19T07:11:49.781Z,98581.68
2018-09-19T07:14:18.439Z,98571.31
2018-09-19T07:16:47.010Z,98569.98
2018-09-19T07:19:15.564Z,98567.27
2018-09-19T07:21:44.133Z,98564.38
2018-09-19T07:24:12.672Z,98564.99
2018-09-19T07:26:41.283Z,98565.75
2018-09-19T07:29:09.848Z,98561.69
2018-09-19T07:31:38.430Z,98563.91
2018-09-19T07:34:07.001Z,98572.27
2018-09-19T07:36:35.592Z,98571.75
2018-09-19T07:39:04.651Z,98587.97
2018-09-19T07:41:33.286Z,98587.16
2018-09-19T07:44:01.844Z,98589.61
2018-09-19T07:46:30.524Z,98594.77
2018-09-19T07:48:59.036Z,98597.98
2018-09-19T07:51:27.637Z,98597.73
2018-09-19T07:53:56.214Z,98596.62
2018-09-19T07:56:24.808Z,98593.34
2018-09-19T07:58:53.545Z,98590.27
2018-09-19T08:01:22.227Z,98585.95
2018-09-19T08:03:50.755Z,98599.95
2018-09-19T08:06:19.317Z,98602.70
2018-09-19T08:08:47.865Z,98597.69
2018-09-19T08:11:16.485Z,98601.80
2018-09-19T08:13:45.035Z,98609.31
2018-09-19T08:16:13.647Z,98605.72
2018-09-19T08:18:42.229Z,98606.90
2018-09-19T08:21:10.868Z,98622.11
2018-09-19T08:23:39.425Z,98620.97
2018-09-19T08:26:08.038Z,98625.02
2018-09-19T08:28:36.588Z,98626.38
2018-09-19T08:31:05.186Z,98623.66
2018-09-19T08:33:33.793Z,98629.87
2018-09-19T08:36:02.396Z,98624.89
2018-09-19T08:38:30.959Z,98621.58
2018-09-19T08:40:59.543Z,98626.16
2018-09-19T08:43:28.126Z,98636.64
2018-09-19T08:45:56.727Z,98639.98
2018-09-19T08:48:25.282Z,98635.86
2018-09-19T08:50:53.933Z,98633.70
2018-09-19T08:53:22.535Z,98625.64
2018-09-19T08:55:51.158Z,98629.17
2018-09-19T08:58:19.857Z,98630.65
2018-09-19T09:00:52.184Z,98636.53
2018-09-19T09:03:20.809Z,98633.67
2018-09-19T09:05:49.392Z,98638.38
2018-09-19T09:08:18.025Z,98634.20
2018-09-19T09:10:48.411Z,98633.91
2018-09-19T09:13:17.932Z,98632.14
2018-09-19T09:15:46.489Z,98628.56
2018-09-19T09:18:15.082Z,98624.22
2018-09-19T09:20:43.692Z,98619.66
2018-09-19T09:23:12.325Z,98626.70
2018-09-19T09:25:40.938Z,98622.72
2018-09-19T09:28:09.996Z,98625.12
2018-09-19T09:30:38.546Z,98619.52
2018-09-19T09:33:07.596Z,98615.17
2018-09-19T09:35:36.330Z,98619.95
2018-09-19T09:38:04.920Z,98623.89
2018-09-19T09:40:33.553Z,98623.05
2018-09-19T09:43:02.132Z,98624.55
2018-09-19T09:45:30.693Z,98612.56
2018-09-19T09:47:59.283Z,98611.91
2018-09-19T09:50:27.875Z,98614.23
2018-09-19T09:52:56.407Z,98618.33
2018-09-19T09:55:24.977Z,98612.86
2018-09-19T09:57:53.563Z,98619.02
2018-09-19T10:00:27.533Z,98610.00
2018-09-19T10:02:56.104Z,98610.31
2018-09-19T10:05:25.455Z,98624.43
2018-09-19T10:07:54.792Z,98618.75
2018-09-19T10:10:23.333Z,98607.93
2018-09-19T10:12:51.915Z,98617.28
2018-09-19T10:15:20.456Z,98623.48
2018-09-19T10:17:49.161Z,98622.89
2018-09-19T10:20:17.758Z,98622.91
2018-09-19T10:22:46.364Z,98615.32
2018-09-19T10:25:14.922Z,98621.55
2018-09-19T10:27:43.497Z,98622.56
2018-09-19T10:30:12.669Z,98619.92
2018-09-19T10:32:41.263Z,98622.69
2018-09-19T10:35:09.814Z,98622.91
2018-09-19T10:37:38.393Z,98625.52
2018-09-19T10:40:07.280Z,98621.66
2018-09-19T10:42:35.856Z,98619.21
2018-09-19T10:45:04.823Z,98623.84
2018-09-19T10:47:34.449Z,98625.92
2018-09-19T10:50:03.436Z,98629.83
2018-09-19T10:52:32.052Z,98623.09
2018-09-19T10:55:00.794Z,98621.34
2018-09-19T10:57:30.144Z,98623.23
2018-09-19T10:59:58.846Z,98631.30
2018-09-19T11:02:27.428Z,98630.04
2018-09-19T11:04:55.988Z,98616.23
2018-09-19T11:07:24.567Z,98617.27
2018-09-19T11:09:53.315Z,98611.77
2018-09-19T11:12:21.845Z,98606.43
2018-09-19T11:14:50.411Z,98609.66
2018-09-19T11:17:18.969Z,98603.78
2018-09-19T11:19:47.572Z,98601.97
2018-09-19T11:22:16.156Z,98593.73
2018-09-19T11:24:44.784Z,98595.23
2018-09-19T11:27:13.841Z,98592.55
2018-09-19T11:29:42.482Z,98590.77
2018-09-19T11:32:11.413Z,98590.18
2018-09-19T11:34:40.449Z,98585.06
2018-09-19T11:37:11.167Z,98587.03
2018-09-19T11:39:41.082Z,98581.61
2018-09-19T11:42:09.680Z,98586.71
2018-09-19T11:44:38.253Z,98585.52
2018-09-19T11:47:06.973Z,98574.84
2018-09-19T11:49:35.553Z,98581.13
2018-09-19T11:52:04.104Z,98582.31
2018-09-19T11:54:32.825Z,98577.04
2018-09-19T11:57:01.344Z,98576.53
2018-09-19T11:59:29.930Z,98574.55
2018-09-19T12:01:58.530Z,98574.82
2018-09-19T12:04:27.110Z,98574.42
2018-09-19T12:06:55.667Z,98568.98
2018-09-19T12:09:24.223Z,98570.69
2018-09-19T12:11:52.764Z,98565.86
2018-09-19T12:14:21.371Z,98554.91
2018-09-19T12:16:49.928Z,98546.55
2018-09-19T12:19:18.507Z,98548.40
2018-09-19T12:21:47.025Z,98546.27
2018-09-19T12:24:15.612Z,98539.64
2018-09-19T12:26:44.210Z,98541.98
2018-09-19T12:29:12.757Z,98539.97
2018-09-19T12:31:41.311Z,98535.53
2018-09-19T12:34:09.876Z,98532.09
2018-09-19T12:36:38.424Z,98538.28
2018-09-19T12:39:08.871Z,98529.75
2018-09-19T12:41:37.443Z,98524.30
2018-09-19T12:44:06.061Z,98532.76
2018-09-19T12:46:34.954Z,98526.61
2018-09-19T12:49:03.576Z,98520.52
2018-09-19T12:51:32.121Z,98522.13
2018-09-19T12:54:00.692Z,98520.38
2018-09-19T12:56:29.300Z,98521.33
2018-09-19T12:58:57.935Z,98524.98
2018-09-19T13:01:26.475Z,98516.58
2018-09-19T13:03:55.055Z,98515.42
2018-09-19T13:06:23.654Z,98518.98
2018-09-19T13:08:52.266Z,98515.77
2018-09-19T13:11:20.841Z,98517.53
2018-09-19T13:13:49.425Z,98520.13
2018-09-19T13:16:17.956Z,98501.91
2018-09-19T13:18:46.547Z,98511.12
2018-09-19T13:21:15.156Z,98507.66
2018-09-19T13:23:43.719Z,98511.28
2018-09-19T13:26:12.317Z,98508.77
2018-09-19T13:28:40.884Z,98507.93
2018-09-19T13:31:09.488Z,98514.87
2018-09-19T13:33:38.095Z,98505.83
2018-09-19T13:36:07.536Z,98505.91
2018-09-19T13:38:36.091Z,98507.53
2018-09-19T13:41:04.813Z,98507.52
2018-09-19T13:43:33.407Z,98498.58
2018-09-19T13:46:02.032Z,98501.00
2018-09-19T13:48:30.621Z,98504.99
2018-09-19T13:51:11.544Z,98499.05
2018-09-19T13:53:40.869Z,98497.95
2018-09-19T13:56:09.473Z,98495.36
2018-09-19T13:58:38.014Z,98489.75
2018-09-19T14:01:06.677Z,98492.98
2018-09-19T14:03:35.259Z,98491.80
2018-09-19T14:06:03.865Z,98489.25
2018-09-19T14:08:32.428Z,98488.67
2018-09-19T14:11:01.033Z,98485.02
2018-09-19T14:13:29.592Z,98483.28
2018-09-19T14:15:58.749Z,98485.69
2018-09-19T14:18:27.372Z,98486.53
2018-09-19T14:20:55.993Z,98482.70
2018-09-19T14:23:24.540Z,98482.73
2018-09-19T14:25:53.147Z,98482.48
2018-09-19T14:28:21.808Z,98475.55
2018-09-19T14:30:50.343Z,98477.40
2018-09-19T14:33:18.961Z,98484.06
2018-09-19T14:35:47.591Z,98481.16
2018-09-19T14:38:16.246Z,98475.86
2018-09-19T14:40:44.821Z,98478.63
2018-09-19T14:43:13.412Z,98475.73
2018-09-19T14:45:42.009Z,98472.10
2018-09-19T14:48:10.540Z,98473.41
2018-09-19T14:50:39.120Z,98467.72
2018-09-19T14:53:07.702Z,98467.55
2018-09-19T14:55:36.295Z,98469.44
2018-09-19T14:58:04.893Z,98461.36
2018-09-19T15:00:33.490Z,98459.73
2018-09-19T15:03:02.069Z,98457.89
2018-09-19T15:05:30.644Z,98463.04
2018-09-19T15:07:59.235Z,98455.80
2018-09-19T15:11:52.191Z,98455.67
2018-09-19T15:14:21.434Z,98456.28
2018-09-19T15:16:50.048Z,98456.34
2018-09-19T15:19:18.636Z,98462.36
2018-09-19T15:21:47.821Z,98449.84
2018-09-19T15:24:16.412Z,98452.75
2018-09-19T15:26:44.984Z,98446.59
2018-09-19T15:29:13.505Z,98443.88
2018-09-19T15:31:42.072Z,98443.79
2018-09-19T15:34:10.584Z,98450.00
2018-09-19T15:36:41.369Z,98447.05
2018-09-19T15:39:10.448Z,98446.22
2018-09-19T15:41:39.012Z,98447.48
2018-09-19T15:44:07.603Z,98445.56
2018-09-19T15:46:36.657Z,98446.42
2018-09-19T15:49:05.192Z,98448.03
2018-09-19T15:51:33.893Z,98443.82
2018-09-19T15:54:02.455Z,98444.62
2018-09-19T15:56:31.028Z,98443.22
2018-09-19T15:58:59.599Z,98441.80
2018-09-19T16:01:28.171Z,98446.23
2018-09-19T16:03:56.760Z,98444.23
2018-09-19T16:06:25.344Z,98450.34
2018-09-19T16:08:53.877Z,98448.02
2018-09-19T16:11:22.484Z,98453.94
2018-09-19T16:13:51.024Z,98455.17
2018-09-19T16:16:19.704Z,98453.69
2018-09-19T16:18:48.263Z,98454.08
2018-09-19T16:21:16.856Z,98458.42
2018-09-19T16:23:45.376Z,98452.63
2018-09-19T16:26:13.966Z,98458.55
2018-09-19T16:28:42.480Z,98455.57
2018-09-19T16:31:11.026Z,98462.23
2018-09-19T16:33:39.576Z,98462.48
2018-09-19T16:36:08.101Z,98463.67
2018-09-19T16:38:36.643Z,98472.45
2018-09-19T16:41:05.208Z,98476.13
2018-09-19T16:43:33.829Z,98466.95
2018-09-19T16:46:02.401Z,98468.38
2018-09-19T16:48:31.232Z,98470.73
2018-09-19T16:50:59.768Z,98468.41
2018-09-19T16:53:28.356Z,98470.36
2018-09-19T16:55:56.944Z,98470.66
2018-09-19T16:58:25.525Z,98472.16
2018-09-19T17:00:54.057Z,98472.44
2018-09-19T17:03:22.608Z,98473.02
2018-09-19T17:05:51.183Z,98481.48
2018-09-19T17:08:19.702Z,98470.72
2018-09-19T17:10:48.237Z,98476.52
2018-09-19T17:13:17.038Z,98479.98
2018-09-19T17:15:46.142Z,98477.45
2018-09-19T17:18:14.671Z,98476.15
2018-09-19T17:20:43.209Z,98474.78
2018-09-19T17:23:11.776Z,98471.98
2018-09-19T17:25:40.519Z,98469.21
2018-09-19T17:28:09.033Z,98472.14
2018-09-19T17:30:37.553Z,98478.61
2018-09-19T17:33:06.165Z,98482.49
2018-09-19T17:35:34.712Z,98478.57
2018-09-19T17:38:03.344Z,98481.86
2018-09-19T17:40:31.927Z,98491.81
2018-09-19T17:43:00.516Z,98496.33
2018-09-19T17:45:29.089Z,98489.38
2018-09-19T17:47:57.764Z,98485.11
2018-09-19T17:52:54.014Z,98489.85
2018-09-19T17:55:22.626Z,98491.80
2018-09-19T17:57:51.188Z,98490.81
2018-09-19T18:00:19.797Z,98487.33
2018-09-19T18:02:48.370Z,98492.30
2018-09-19T18:05:16.980Z,98496.08
2018-09-19T18:07:45.516Z,98499.01
2018-09-19T18:10:14.138Z,98502.31
2018-09-19T18:12:42.740Z,98504.45
2018-09-19T18:15:11.332Z,98508.05
2018-09-19T18:17:39.924Z,98501.85
2018-09-19T18:20:09.154Z,98511.98
2018-09-19T18:22:37.678Z,98514.99
2018-09-19T18:25:06.328Z,98509.94
2018-09-19T18:27:35.745Z,98506.20
2018-09-19T18:30:04.330Z,98506.57
2018-09-19T18:32:32.877Z,98507.36
2018-09-19T18:35:01.469Z,98507.97
2018-09-19T18:37:30.017Z,98513.95
2018-09-19T18:39:58.616Z,98516.70
2018-09-19T18:42:27.186Z,98511.85
2018-09-19T18:44:55.782Z,98514.59
2018-09-19T18:47:24.405Z,98514.84
2018-09-19T18:49:53.068Z,98518.72
2018-09-19T18:52:21.651Z,98518.21
2018-09-19T18:54:50.289Z,98518.50
2018-09-19T18:57:18.850Z,98525.03
2018-09-19T18:59:47.451Z,98524.83
2018-09-19T19:02:17.053Z,98521.05
2018-09-19T19:04:45.688Z,98527.01
2018-09-19T19:07:14.257Z,98525.91
2018-09-19T19:09:42.847Z,98521.06
2018-09-19T19:12:11.439Z,98522.70
2018-09-19T19:14:40.022Z,98523.80
2018-09-19T19:17:08.642Z,98531.36
2018-09-19T19:19:37.246Z,98534.12
2018-09-19T19:22:05.890Z,98536.80
2018-09-19T19:24:34.448Z,98530.84
2018-09-19T19:27:03.166Z,98532.75
2018-09-19T19:29:31.778Z,98538.71
2018-09-19T19:32:00.467Z,98531.97
2018-09-19T19:34:29.007Z,98532.50
2018-09-19T19:36:57.616Z,98539.55
2018-09-19T19:39:26.227Z,98538.74
2018-09-19T19:41:55.113Z,98537.91
2018-09-19T19:44:23.691Z,98536.98
2018-09-19T19:46:52.293Z,98537.22
2018-09-19T19:49:20.857Z,98541.77
2018-09-19T19:51:49.460Z,98535.03
2018-09-19T19:54:18.061Z,98535.31
2018-09-19T19:56:46.671Z,98540.48
2018-09-19T19:59:15.272Z,98534.80
2018-09-19T20:01:43.863Z,98534.51
2018-09-19T20:04:12.415Z,98530.73
2018-09-19T20:06:41.037Z,98535.88
2018-09-19T20:09:09.996Z,98535.91
2018-09-19T20:11:39.097Z,98539.38
2018-09-19T20:14:07.768Z,98540.98
2018-09-19T20:16:36.393Z,98538.55
2018-09-19T20:19:04.952Z,98541.27
2018-09-19T20:21:35.476Z,98542.89
2018-09-19T20:24:04.229Z,98540.98
2018-09-19T20:26:32.835Z,98543.38
2018-09-19T20:29:01.420Z,98538.79
2018-09-19T20:31:30.113Z,98547.66
2018-09-19T20:33:58.642Z,98551.45
2018-09-19T20:36:27.473Z,98554.41
2018-09-19T20:38:56.072Z,98559.02
2018-09-19T20:41:25.296Z,98550.88
2018-09-19T20:43:53.859Z,98550.31
2018-09-19T20:46:22.463Z,98544.64
2018-09-19T20:48:51.108Z,98543.82
2018-09-19T20:51:19.776Z,98542.78
2018-09-19T20:53:48.347Z,98548.12
2018-09-19T20:56:17.012Z,98538.95
2018-09-19T20:58:45.646Z,98546.52
2018-09-19T21:01:14.245Z,98544.06
2018-09-19T21:03:42.849Z,98549.70
2018-09-19T21:06:12.227Z,98550.69
2018-09-19T21:15:42.477Z,98555.86
2018-09-19T21:18:11.090Z,98562.56
2018-09-19T21:20:39.674Z,98560.47
2018-09-19T21:23:08.314Z,98554.44
2018-09-19T21:25:36.880Z,98557.14
2018-09-19T21:28:05.560Z,98562.68
2018-09-19T21:30:34.146Z,98563.17
2018-09-19T21:33:02.775Z,98549.49
2018-09-19T21:35:31.541Z,98563.27
2018-09-19T21:38:00.136Z,98555.15
2018-09-19T21:40:28.733Z,98557.39
2018-09-19T21:42:57.313Z,98558.05
2018-09-19T21:45:25.869Z,98557.54
2018-09-19T21:47:54.506Z,98558.32
2018-09-19T21:50:23.152Z,98559.89
2018-09-19T21:52:51.737Z,98555.53
2018-09-19T21:55:20.316Z,98562.23
2018-09-19T21:57:48.933Z,98562.30
2018-09-19T22:00:17.519Z,98558.78
2018-09-19T22:02:46.118Z,98556.53
2018-09-19T22:05:14.690Z,98556.67
2018-09-19T22:07:43.274Z,98564.80
2018-09-19T22:10:11.840Z,98555.36
2018-09-19T22:12:40.424Z,98556.45
2018-09-19T22:15:09.032Z,98557.50
2018-09-19T22:17:37.670Z,98557.02
2018-09-19T22:20:06.244Z,98558.63
2018-09-19T22:22:34.913Z,98558.09
2018-09-19T22:25:03.492Z,98552.78
2018-09-19T22:27:32.912Z,98557.02
2018-09-19T22:30:01.504Z,98559.41
2018-09-19T22:32:30.048Z,98554.80
2018-09-19T22:34:58.704Z,98550.67
2018-09-19T22:37:27.266Z,98548.23
2018-09-19T22:39:55.861Z,98547.67
2018-09-19T22:42:24.430Z,98550.58
2018-09-19T22:44:53.090Z,98550.83
2018-09-19T22:47:21.677Z,98547.88
2018-09-19T22:49:50.296Z,98551.58
2018-09-19T22:52:18.845Z,98545.66
2018-09-19T22:54:47.456Z,98547.02
2018-09-19T22:57:16.025Z,98546.96
2018-09-19T22:59:44.619Z,98547.53
2018-09-19T23:02:13.213Z,98542.49
2018-09-19T23:04:41.837Z,98545.75
2018-09-19T23:07:10.417Z,98545.19
2018-09-19T23:09:39.025Z,98546.75
2018-09-19T23:12:07.597Z,98552.83
2018-09-19T23:14:36.184Z,98549.30
2018-09-19T23:17:04.774Z,98550.44
2018-09-19T23:19:33.363Z,98548.48
2018-09-19T23:22:02.181Z,98549.25
2018-09-19T23:24:30.816Z,98548.20
2018-09-19T23:26:59.391Z,98542.82
2018-09-19T23:29:28.037Z,98545.56
2018-09-19T23:31:56.607Z,98540.23
2018-09-19T23:34:25.225Z,98540.09
2018-09-19T23:36:53.778Z,98534.33
2018-09-19T23:39:22.394Z,98538.70
2018-09-19T23:41:50.957Z,98539.86
2018-09-19T23:44:19.559Z,98541.58
2018-09-19T23:46:48.149Z,98541.25
2018-09-19T23:49:16.742Z,98538.32
2018-09-19T23:51:45.290Z,98539.67
2018-09-19T23:54:13.893Z,98538.25
2018-09-19T23:56:42.452Z,98544.16
2018-09-19T23:59:11.096Z,98539.92
